Latest Weather Observations for Aireys Inlet

IDV60801

Issued at 10:35 pm EST Saturday 26 July 2014 (issued every 30 minutes, with the page automatically refreshed every 10 minutes)

About weather observations | Map of weather stations | Latest weather observations for VIC | Other Formats
Station Details ID: 090180 Name: AIREYS INLET Lat: -38.46 Lon: 144.09 Height: 95.0 m
Data from the previous 72 hours. | See also: Recent months at Aireys Inlet
Date/Time
EST
Temp
°C
App
Temp
°C
Dew
Point
Rel
Hum
%
Delta-T
°C
Wind Press
QNH
hPa
Press
MSL
hPa
Rain
since 9 am
mm
Dir
 
Spd
km/h
Gust
km/h
Spd
kts
Gust
kts
26/10:30pm 10.3 6.6 7.9 85 1.2 W 17 20 9 11 - - 0.0
26/10:00pm 10.3 7.5 8.4 88 0.9 WNW 13 19 7 10 - - 0.0
26/09:30pm 10.5 7.7 8.6 88 0.9 W 13 20 7 11 - - 0.0
26/09:00pm 10.9 8.9 8.8 87 1.0 WNW 9 15 5 8 - - 0.0
26/08:30pm 10.7 8.4 9.0 89 0.8 WSW 11 19 6 10 - - 0.0
26/08:00pm 11.3 9.1 9.2 87 1.1 WSW 11 17 6 9 - - 0.0
26/07:30pm 11.6 9.0 9.5 87 1.1 W 13 20 7 11 - - 0.0
26/07:00pm 11.7 8.9 10.1 90 0.8 WSW 15 24 8 13 - - 0.0
26/06:30pm 11.9 8.3 9.8 87 1.1 W 19 28 10 15 - - 0.0
26/06:00pm 11.6 9.4 10.8 95 0.4 WNW 13 17 7 9 - - 0.0
26/05:30pm 11.6 9.4 10.8 95 0.4 W 13 20 7 11 - - 0.0
26/05:00pm 11.9 8.9 10.5 91 0.7 WNW 17 24 9 13 - - 0.0
26/04:30pm 11.9 8.8 10.3 90 0.8 WNW 17 26 9 14 - - 0.0
26/04:00pm 12.2 9.5 10.4 89 0.9 WNW 15 24 8 13 - - 0.0
26/03:30pm 12.7 10.9 10.8 88 1.0 W 11 19 6 10 - - 0.0
26/03:00pm 12.6 10.0 10.8 89 0.9 W 15 30 8 16 - - 0.0
26/02:30pm 12.9 10.3 10.8 87 1.1 W 15 26 8 14 - - 0.0
26/02:00pm 13.0 10.9 11.1 88 1.0 WNW 13 22 7 12 - - 0.0
26/01:30pm 12.6 11.1 12.0 96 0.3 W 11 15 6 8 - - 0.0
26/01:00pm 12.5 10.6 11.7 95 0.4 W 13 22 7 12 - - 0.0
26/12:30pm 12.6 9.8 11.3 92 0.7 NW 17 26 9 14 - - 0.0
26/12:00pm 12.6 9.3 11.0 90 0.8 WNW 19 28 10 15 - - 0.0
26/11:30am 12.7 10.3 11.3 91 0.7 NW 15 26 8 14 - - 0.0
26/11:00am 12.3 9.8 11.2 93 0.6 NW 15 24 8 13 - - 0.0
26/10:30am 11.7 8.7 10.8 94 0.5 NW 17 26 9 14 - - 0.0
26/10:00am 11.9 8.3 10.6 92 0.7 WNW 20 32 11 17 - - 0.0
26/09:30am 11.6 8.3 10.8 95 0.4 WNW 19 28 10 15 - - 0.0
26/09:00am 11.4 7.8 10.5 94 0.5 NW 20 33 11 18 - - 4.6
26/08:30am 11.6 8.6 10.5 93 0.6 WNW 17 28 9 15 - - 4.6
26/08:00am 11.6 9.6 10.3 92 0.7 WNW 11 20 6 11 - - 4.6
26/07:30am 11.6 9.7 10.5 93 0.6 WSW 11 24 6 13 - - 4.6
26/07:00am 11.3 10.2 10.5 95 0.4 SW 7 17 4 9 - - 4.6
26/06:30am 11.4 7.1 10.9 97 0.3 NW 24 39 13 21 - - 4.6
26/06:00am 11.5 8.5 10.7 95 0.4 NW 17 28 9 15 - - 4.6
26/05:30am 11.5 10.0 10.7 95 0.4 W 9 22 5 12 - - 4.6
26/05:00am 11.4 8.1 10.9 97 0.3 WNW 19 30 10 16 - - 4.6
26/04:30am 11.4 7.2 11.1 98 0.2 WNW 24 37 13 20 - - 4.6
26/04:00am 11.3 6.7 11.1 99 0.1 NW 26 37 14 20 - - 4.6
26/03:30am 11.3 6.3 11.1 99 0.1 NW 28 43 15 23 - - 4.6
26/03:00am 11.3 8.4 11.1 99 0.1 NW 17 30 9 16 - - 4.6
26/02:30am 11.0 7.1 10.8 99 0.1 NW 22 35 12 19 - - 4.6
26/02:00am 11.0 8.0 10.7 98 0.2 NW 17 28 9 15 - - 4.6
26/01:30am 11.0 8.8 10.7 98 0.2 NW 13 24 7 13 - - 4.6
26/01:00am 11.0 8.7 10.5 97 0.3 NW 13 22 7 12 - - 4.6
26/12:30am 11.2 6.4 10.4 95 0.4 NW 26 41 14 22 - - 4.6
26/12:00am 11.3 7.9 10.4 94 0.5 NW 19 28 10 15 - - 4.6
 
Date/Time
EST
Temp
°C
App
Temp
°C
Dew
Point
Rel
Hum
%
Delta-T
°C
Wind Press
QNH
hPa
Press
MSL
hPa
Rain
since 9 am
mm
Dir
 
Spd
km/h
Gust
km/h
Spd
kts
Gust
kts
25/11:30pm 11.2 7.6 10.4 95 0.4 NW 20 32 11 17 - - 4.6
25/11:00pm 11.4 8.0 10.6 95 0.4 NW 19 33 10 18 - - 4.6
25/10:30pm 11.4 7.8 10.6 95 0.4 NW 20 33 11 18 - - 4.6
25/10:00pm 11.2 7.3 10.7 97 0.3 NW 22 33 12 18 - - 4.6
25/09:30pm 11.3 8.0 10.8 97 0.3 NW 19 32 10 17 - - 4.6
25/09:00pm 11.3 8.1 11.1 99 0.1 NW 19 32 10 17 - - 4.6
25/08:30pm 11.0 8.4 10.8 99 0.1 NNW 15 22 8 12 - - 4.6
25/08:00pm 10.9 8.3 10.7 99 0.1 NNW 15 20 8 11 - - 4.6
25/07:30pm 10.9 7.5 10.6 98 0.2 NW 19 24 10 13 - - 4.6
25/07:00pm 11.1 8.1 10.8 98 0.2 NW 17 28 9 15 - - 4.4
25/06:30pm 11.6 8.7 11.1 97 0.3 NW 17 28 9 15 - - 4.0
25/06:00pm 11.8 8.1 11.5 98 0.2 NW 22 32 12 17 - - 4.0
25/05:30pm 11.7 8.6 11.5 99 0.1 NW 19 33 10 18 - - 4.0
25/05:00pm 11.6 8.4 11.4 99 0.1 NNW 19 32 10 17 - - 2.4
25/04:30pm 12.3 9.1 11.4 94 0.5 NNW 19 28 10 15 - - 0.6
25/04:00pm 13.0 9.8 11.1 88 1.0 NNW 19 28 10 15 - - 0.6
25/03:30pm 13.0 9.8 11.1 88 1.0 NW 19 28 10 15 - - 0.6
25/03:00pm 12.5 9.4 11.6 94 0.5 NNW 19 28 10 15 - - 0.6
25/02:30pm 12.7 9.9 11.3 91 0.7 NNW 17 26 9 14 - - 0.4
25/02:00pm 13.2 9.8 11.3 88 1.0 NNW 20 39 11 21 - - 0.2
25/01:30pm 13.6 10.5 11.7 88 1.0 NW 19 33 10 18 - - 0.2
25/01:00pm 13.2 9.1 11.4 89 1.0 NNW 24 39 13 21 - - 0.2
25/12:30pm 12.9 8.8 11.3 90 0.8 NNW 24 39 13 21 - - 0.2
25/12:00pm 12.8 8.6 11.2 90 0.8 NNW 24 41 13 22 - - 0.2
25/11:30am 12.4 7.4 11.1 92 0.7 NNW 28 43 15 23 - - 0.0
25/11:00am 13.5 10.0 10.9 84 1.4 NNW 20 37 11 20 - - 0.0
25/10:30am 12.8 8.8 10.5 86 1.2 N 22 43 12 23 - - 0.0
25/10:00am 12.2 8.8 10.4 89 0.9 N 19 30 10 16 - - 0.0
25/09:30am 11.7 8.3 10.4 92 0.7 N 19 33 10 18 - - 0.0
25/09:00am 10.7 7.1 10.4 98 0.2 N 20 28 11 15 - - 4.6
25/08:30am 10.3 6.6 10.1 99 0.1 N 20 30 11 16 - - 4.6
25/08:00am 10.7 6.2 10.1 96 0.3 N 24 35 13 19 - - 3.6
25/07:30am 10.4 6.8 9.9 97 0.3 N 19 24 10 13 - - 3.4
25/07:00am 10.3 7.1 9.8 97 0.3 N 17 28 9 15 - - 3.4
25/06:30am 9.9 8.0 9.0 94 0.4 N 9 13 5 7 - - 3.0
25/06:00am 9.1 6.7 8.6 97 0.2 NNE 11 13 6 7 - - 3.0
25/05:30am 9.2 6.8 8.6 96 0.3 NNE 11 13 6 7 - - 3.0
25/05:00am 9.6 6.5 8.8 95 0.4 N 15 20 8 11 - - 3.0
25/04:30am 9.3 7.6 8.2 93 0.5 NNE 7 9 4 5 - - 3.0
25/04:00am 9.7 7.6 8.3 91 0.7 N 9 15 5 8 - - 3.0
25/03:30am 9.9 7.4 8.2 89 0.8 N 11 15 6 8 - - 3.0
25/03:00am 10.1 7.6 8.0 87 1.0 N 11 17 6 9 - - 3.0
25/02:30am 10.0 6.7 8.1 88 0.9 N 15 20 8 11 - - 3.0
25/02:00am 10.0 7.4 7.9 87 1.0 N 11 17 6 9 - - 3.0
25/01:30am 9.8 7.7 8.1 89 0.8 N 9 17 5 9 - - 3.0
25/01:00am 9.5 6.9 7.9 90 0.8 NNE 11 20 6 11 - - 3.0
25/12:30am 9.6 7.0 7.9 89 0.8 NNE 11 17 6 9 - - 3.0
25/12:00am 10.0 7.1 8.1 88 0.9 NNE 13 19 7 10 - - 3.0
 
Date/Time
EST
Temp
°C
App
Temp
°C
Dew
Point
Rel
Hum
%
Delta-T
°C
Wind Press
QNH
hPa
Press
MSL
hPa
Rain
since 9 am
mm
Dir
 
Spd
km/h
Gust
km/h
Spd
kts
Gust
kts
24/11:30pm 10.0 7.1 8.3 89 0.8 NNE 13 19 7 10 - - 3.0
24/11:00pm 10.2 7.3 8.3 88 0.9 NNE 13 17 7 9 - - 3.0
24/10:30pm 10.2 7.3 8.3 88 0.9 NNE 13 19 7 10 - - 3.0
24/10:00pm 10.3 8.3 8.6 89 0.8 N 9 15 5 8 - - 3.0
24/09:30pm 10.1 8.1 8.7 91 0.7 N 9 13 5 7 - - 3.0
24/09:00pm 9.8 8.4 9.0 95 0.4 N 6 7 3 4 - - 3.0
24/08:30pm 9.7 8.3 8.9 95 0.4 NNE 6 7 3 4 - - 3.0
24/08:00pm 9.6 8.1 9.0 96 0.3 NNE 7 9 4 5 - - 3.0
24/07:30pm 9.6 7.3 9.0 96 0.3 NNE 11 15 6 8 - - 3.0
24/07:00pm 9.7 7.5 9.2 97 0.2 N 11 15 6 8 - - 3.0
24/06:30pm 9.9 7.7 9.4 97 0.2 NNE 11 15 6 8 - - 3.0
24/06:00pm 10.3 7.7 9.4 94 0.5 NE 13 22 7 12 - - 3.0
24/05:30pm 10.4 7.4 9.3 93 0.6 NE 15 22 8 12 - - 3.0
24/05:00pm 10.5 7.2 9.6 94 0.5 NE 17 28 9 15 - - 3.0
24/04:30pm 10.4 7.2 10.1 98 0.2 NE 17 24 9 13 - - 3.0
24/04:00pm 10.1 7.9 9.5 96 0.3 NE 11 19 6 10 - - 2.8
24/03:30pm 10.3 8.0 9.1 92 0.6 NE 11 17 6 9 - - 2.4
24/03:00pm 10.4 8.6 9.6 95 0.4 ENE 9 20 5 11 - - 2.4
24/02:30pm 10.4 8.3 9.8 96 0.3 ENE 11 17 6 9 - - 2.4
24/02:00pm 10.5 9.5 10.3 99 0.1 NE 6 9 3 5 - - 2.4
24/01:30pm 9.7 8.3 9.6 99 0.1 NE 7 11 4 6 - - 2.4
24/01:00pm 9.7 8.5 9.7 100 0.0 NE 6 11 3 6 - - 2.4
24/12:30pm 9.7 8.5 9.7 100 0.0 NE 6 7 3 4 - - 2.4
24/12:00pm 9.4 8.0 9.4 100 0.0 NE 7 9 4 5 - - 2.2
24/11:30am 9.2 7.3 9.2 100 0.0 NNE 9 13 5 7 - - 1.6
24/11:00am 9.0 6.7 8.9 99 0.0 NNE 11 17 6 9 - - 1.0
24/10:30am 9.1 7.2 9.0 99 0.0 NNE 9 13 5 7 - - 0.6
24/10:00am 9.0 6.7 8.9 99 0.0 N 11 19 6 10 - - 0.4
24/09:30am 8.5 6.4 8.4 99 0.0 NNE 9 15 5 8 - - 0.2
24/09:00am 8.2 5.2 7.9 98 0.1 NNE 13 17 7 9 - - 0.4
24/08:30am 8.0 4.6 7.6 97 0.2 NNE 15 20 8 11 - - 0.2
24/08:00am 7.8 5.8 7.2 96 0.3 NE 7 11 4 6 - - 0.2
24/07:30am 8.2 5.1 7.4 95 0.4 N 13 17 7 9 - - 0.2
24/07:00am 7.5 4.8 5.8 89 0.8 NNE 9 13 5 7 - - 0.0
24/06:30am 7.2 4.5 5.5 89 0.8 NNE 9 15 5 8 - - 0.0
24/06:00am 7.6 5.7 5.1 84 1.1 E 4 7 2 4 - - 0.0
24/05:30am 7.7 5.2 5.0 83 1.2 NNE 7 7 4 4 - - 0.0
24/05:00am 8.5 5.7 5.1 79 1.5 NNE 9 15 5 8 - - 0.0
24/04:30am 7.9 6.4 5.0 82 1.3 N 2 4 1 2 - - 0.0
24/04:00am 7.8 5.5 4.9 82 1.3 N 6 9 3 5 - - 0.0
24/03:30am 7.8 4.6 4.9 82 1.3 N 11 19 6 10 - - 0.0
24/03:00am 8.1 4.5 4.9 80 1.4 N 13 22 7 12 - - 0.0
24/02:30am 8.7 4.7 5.1 78 1.6 N 15 28 8 15 - - 0.0
24/02:00am 8.4 4.5 5.2 80 1.4 N 15 24 8 13 - - 0.0
24/01:30am 7.8 4.0 4.0 77 1.7 N 13 19 7 10 - - 0.0
24/01:00am 7.8 4.0 3.7 75 1.8 N 13 19 7 10 - - 0.0
24/12:30am 7.4 4.3 3.6 77 1.6 N 9 15 5 8 - - 0.0
24/12:00am 7.3 4.2 3.7 78 1.5 NW 9 11 5 6 - - 0.0
 
Date/Time
EST
Temp
°C
App
Temp
°C
Dew
Point
Rel
Hum
%
Delta-T
°C
Wind Press
QNH
hPa
Press
MSL
hPa
Rain
since 9 am
mm
Dir
 
Spd
km/h
Gust
km/h
Spd
kts
Gust
kts
23/11:30pm 7.5 4.1 3.9 78 1.6 N 11 20 6 11 - - 0.0
23/11:00pm 7.3 3.7 4.8 84 1.1 N 13 17 7 9 - - 0.0

Other Formats:

Comma delimited format used in spreadsheet applications
http://www.bom.gov.au/fwo/IDV60801/IDV60801.94846.axf

JavaScript Object Notation format (JSON) in row-major order
http://www.bom.gov.au/fwo/IDV60801/IDV60801.94846.json